Time;durP1;ratioP1;P1;durP2;ratioP2;P2;SDS_P1;SDS_P2;PMS_P1;PMS_P2;Temp;Humidity;BMP_temperature;BMP_pressure;BME280_temperature;BME280_humidity;BME280_pressure;Samples;Min_cycle;Max_cycle;Signal;HPM_P1;HPM_P2
2022/07/09 00:00:20;;;;;;;;;;;;;;;33.02;28.56;102249.06;4419528;32;20359;-69
2022/07/09 00:02:46;;;;;;;;;;;;;;;32.74;29.06;102237.16;4420738;32;20024;-67
2022/07/09 00:05:13;;;;;;;;;;;;;;;32.89;28.74;102246.16;4420894;32;19988;-68
2022/07/09 00:07:39;;;;;;;;;;;;;;;32.67;29.15;102239.94;4418245;32;19953;-68
2022/07/09 00:10:05;;;;;;;;;;;;;;;32.77;29.08;102236.03;4419564;32;19988;-68
2022/07/09 00:12:31;;;;;;;;;;;;;;;32.78;29.04;102240.50;4420152;32;19961;-68
2022/07/09 00:14:56;;;;;;;;;;;;;;;32.59;29.40;102236.91;4420532;32;19961;-68
2022/07/09 00:17:22;;;;;;;;;;;;;;;32.90;29.01;102230.22;4423464;32;20221;-68
2022/07/09 00:19:47;;;;;;;;;;;;;;;32.93;28.84;102219.56;4421415;32;19992;-68
2022/07/09 00:22:12;;;;;;;;;;;;;;;32.29;29.88;102216.75;4409637;32;20390;-68
2022/07/09 00:24:38;;;;;;;;;;;;;;;32.39;29.99;102217.91;4423143;32;20373;-68
2022/07/09 00:27:04;;;;;;;;;;;;;;;32.78;29.31;102217.19;4422884;32;20052;-68
2022/07/09 00:29:30;;;;;;;;;;;;;;;32.38;29.94;102218.47;4422046;32;19953;-68
2022/07/09 00:31:55;;;;;;;;;;;;;;;31.88;30.77;102201.84;4424815;32;19945;-68
2022/07/09 00:34:21;;;;;;;;;;;;;;;32.61;29.72;102214.59;4423513;32;20336;-68
2022/07/09 00:36:46;;;;;;;;;;;;;;;32.42;30.03;102222.63;4421816;32;19997;-68
2022/07/09 00:39:12;;;;;;;;;;;;;;;32.08;30.67;102217.91;4422448;32;19997;-68
2022/07/09 00:41:38;;;;;;;;;;;;;;;32.73;29.71;102212.22;4422710;32;19945;-68
2022/07/09 00:44:03;;;;;;;;;;;;;;;32.72;29.43;102207.75;4422390;32;19965;-68
2022/07/09 00:46:29;;;;;;;;;;;;;;;32.71;29.74;102205.41;4422609;32;19993;-68
2022/07/09 00:48:54;;;;;;;;;;;;;;;32.99;29.39;102199.81;4421408;32;19997;-68
2022/07/09 00:51:19;;;;;;;;;;;;;;;32.93;29.60;102207.91;4423125;32;20008;-68
2022/07/09 00:53:45;;;;;;;;;;;;;;;33.10;29.32;102202.50;4422781;32;19953;-68
2022/07/09 00:56:11;;;;;;;;;;;;;;;33.12;29.23;102200.59;4423258;32;20056;-68
2022/07/09 00:58:37;;;;;;;;;;;;;;;33.16;29.16;102203.94;4422655;32;20008;-68
2022/07/09 01:01:03;;;;;;;;;;;;;;;33.22;29.12;102204.59;4421322;32;19968;-68
2022/07/09 01:03:29;;;;;;;;;;;;;;;33.19;29.17;102202.06;4424318;32;19997;-68
2022/07/09 01:05:56;;;;;;;;;;;;;;;33.51;28.74;102196.84;4422461;32;20009;-68
2022/07/09 01:08:22;;;;;;;;;;;;;;;33.35;28.84;102210.44;4421695;32;19969;-68
2022/07/09 01:10:48;;;;;;;;;;;;;;;33.39;29.00;102199.22;4420516;32;20265;-68
2022/07/09 01:13:14;;;;;;;;;;;;;;;33.18;29.40;102210.00;4423774;32;20001;-68
2022/07/09 01:15:41;;;;;;;;;;;;;;;33.33;29.14;102210.22;4424399;32;19954;-68
2022/07/09 01:18:09;;;;;;;;;;;;;;;33.10;29.38;102199.59;4421393;32;19996;-68
2022/07/09 01:20:35;;;;;;;;;;;;;;;32.95;29.70;102194.34;4421905;32;19999;-68
2022/07/09 01:23:01;;;;;;;;;;;;;;;32.93;29.77;102194.09;4424429;32;19957;-68
2022/07/09 01:25:31;;;;;;;;;;;;;;;32.78;30.05;102196.75;4421951;32;19996;-68
2022/07/09 01:27:56;;;;;;;;;;;;;;;32.53;30.24;102196.22;4422719;32;20009;-68
2022/07/09 01:30:26;;;;;;;;;;;;;;;32.56;30.41;102195.09;4419278;32;19968;-68
2022/07/09 01:32:52;;;;;;;;;;;;;;;32.91;29.88;102185.13;4422547;32;19968;-68
2022/07/09 01:35:17;;;;;;;;;;;;;;;32.77;29.88;102185.66;4422590;32;19989;-68
2022/07/09 01:37:43;;;;;;;;;;;;;;;32.91;30.01;102184.34;4422857;32;20000;-68
2022/07/09 01:40:09;;;;;;;;;;;;;;;33.20;29.47;102180.25;4420911;32;20004;-68
2022/07/09 01:42:34;;;;;;;;;;;;;;;32.75;30.14;102176.69;4421346;32;19980;-68
2022/07/09 01:45:01;;;;;;;;;;;;;;;32.68;30.23;102181.84;4422608;32;20361;-68
2022/07/09 01:47:26;;;;;;;;;;;;;;;32.21;30.99;102177.94;4420336;32;19962;-68
2022/07/09 01:49:52;;;;;;;;;;;;;;;32.55;30.36;102176.00;4422046;32;19997;-68
2022/07/09 01:52:17;;;;;;;;;;;;;;;32.45;30.45;102169.06;4423729;32;20054;-68
2022/07/09 01:54:43;;;;;;;;;;;;;;;32.80;29.91;102169.97;4422804;32;19965;-68
2022/07/09 01:57:08;;;;;;;;;;;;;;;32.26;30.86;102165.41;4423193;32;20409;-68
2022/07/09 01:59:34;;;;;;;;;;;;;;;32.14;30.86;102171.97;4421382;32;20003;-67
2022/07/09 02:01:59;;;;;;;;;;;;;;;32.26;30.92;102179.97;4419984;32;20103;-68
2022/07/09 02:04:25;;;;;;;;;;;;;;;31.46;32.23;102173.59;4422830;32;19993;-68
2022/07/09 02:06:51;;;;;;;;;;;;;;;32.08;31.14;102174.22;4421193;32;20618;-68
2022/07/09 02:09:17;;;;;;;;;;;;;;;32.50;30.42;102170.28;4420549;32;21147;-68
2022/07/09 02:11:43;;;;;;;;;;;;;;;31.79;31.50;102170.19;4422262;32;20039;-67
2022/07/09 02:14:08;;;;;;;;;;;;;;;31.78;31.61;102183.16;4419819;32;20651;-67
2022/07/09 02:16:34;;;;;;;;;;;;;;;32.38;30.59;102178.47;4423009;32;20340;-67
2022/07/09 02:18:59;;;;;;;;;;;;;;;32.34;30.61;102178.00;4420672;32;20360;-68
2022/07/09 02:21:25;;;;;;;;;;;;;;;32.93;29.86;102181.63;4420868;32;20056;-68
2022/07/09 02:23:52;;;;;;;;;;;;;;;33.15;29.39;102184.88;4422148;32;20421;-68
2022/07/09 02:26:18;;;;;;;;;;;;;;;32.36;30.45;102169.47;4421271;32;19997;-67
2022/07/09 02:28:43;;;;;;;;;;;;;;;32.41;30.32;102174.44;4421742;32;19969;-67
2022/07/09 02:31:09;;;;;;;;;;;;;;;32.95;29.44;102176.84;4421234;32;19965;-67
2022/07/09 02:33:34;;;;;;;;;;;;;;;32.80;29.57;102178.72;4422173;32;19992;-67
2022/07/09 02:36:00;;;;;;;;;;;;;;;32.80;29.56;102178.72;4421247;32;20004;-67
2022/07/09 02:38:25;;;;;;;;;;;;;;;32.49;30.07;102174.56;4420453;32;20015;-67
2022/07/09 02:40:51;;;;;;;;;;;;;;;32.58;30.01;102177.81;4420644;32;19993;-67
2022/07/09 02:43:16;;;;;;;;;;;;;;;33.42;28.68;102185.63;4421013;32;20410;-67
2022/07/09 02:45:41;;;;;;;;;;;;;;;33.33;28.66;102178.09;4420292;32;19969;-67
2022/07/09 02:48:07;;;;;;;;;;;;;;;33.57;28.39;102177.06;4420352;32;20011;-67
2022/07/09 02:50:33;;;;;;;;;;;;;;;33.25;28.84;102173.53;4418609;32;19965;-67
2022/07/09 02:52:58;;;;;;;;;;;;;;;33.55;28.55;102179.75;4420392;32;19953;-67
2022/07/09 02:55:24;;;;;;;;;;;;;;;33.76;27.98;102177.62;4420396;32;20033;-67
2022/07/09 02:57:49;;;;;;;;;;;;;;;33.71;28.27;102170.59;4421451;32;20010;-67
2022/07/09 03:00:15;;;;;;;;;;;;;;;33.40;28.59;102168.69;4420013;32;20417;-67
2022/07/09 03:02:40;;;;;;;;;;;;;;;33.67;28.12;102158.47;4421603;32;19993;-68
2022/07/09 03:05:06;;;;;;;;;;;;;;;33.63;28.10;102155.13;4420903;32;20622;-69
2022/07/09 03:07:31;;;;;;;;;;;;;;;33.83;27.98;102163.13;4408136;32;20322;-68
2022/07/09 03:09:57;;;;;;;;;;;;;;;33.99;27.50;102167.78;4421872;32;20112;-67
2022/07/09 03:12:23;;;;;;;;;;;;;;;33.69;27.98;102161.63;4421475;32;20363;-67
2022/07/09 03:14:48;;;;;;;;;;;;;;;34.22;27.20;102170.91;4422106;32;19961;-68
2022/07/09 03:17:14;;;;;;;;;;;;;;;34.32;26.97;102166.91;4421521;32;20056;-68
2022/07/09 03:19:39;;;;;;;;;;;;;;;34.23;26.87;102173.25;4421197;32;19990;-69
2022/07/09 03:22:05;;;;;;;;;;;;;;;33.84;27.22;102169.75;4422358;32;20452;-68
2022/07/09 03:24:31;;;;;;;;;;;;;;;33.39;27.71;102189.69;4422572;32;20027;-68
2022/07/09 03:26:57;;;;;;;;;;;;;;;33.31;27.74;102182.94;4423065;32;21037;-69
2022/07/09 03:29:22;;;;;;;;;;;;;;;33.21;27.98;102193.50;4421155;32;19967;-69
2022/07/09 03:31:48;;;;;;;;;;;;;;;32.74;28.58;102196.31;4422962;32;20008;-68
2022/07/09 03:34:14;;;;;;;;;;;;;;;32.79;28.54;102206.31;4420811;32;19965;-67
2022/07/09 03:36:40;;;;;;;;;;;;;;;33.10;28.12;102199.59;4421651;32;20429;-68
2022/07/09 03:39:07;;;;;;;;;;;;;;;32.89;28.22;102205.34;4422089;32;20011;-68
2022/07/09 03:41:33;;;;;;;;;;;;;;;33.16;28.00;102206.84;4420349;32;19957;-68
2022/07/09 03:43:58;;;;;;;;;;;;;;;33.40;27.75;102205.81;4419717;32;20009;-68
2022/07/09 03:46:24;;;;;;;;;;;;;;;33.69;27.45;102202.50;4421403;32;19993;-68
2022/07/09 03:48:50;;;;;;;;;;;;;;;33.74;27.34;102210.34;4420476;32;20037;-69
2022/07/09 03:51:15;;;;;;;;;;;;;;;33.87;27.05;102210.31;4423621;32;20445;-69
2022/07/09 03:53:41;;;;;;;;;;;;;;;33.17;27.92;102202.63;4423895;32;19997;-68
2022/07/09 03:56:06;;;;;;;;;;;;;;;33.68;27.33;102200.91;4424635;32;20049;-68
2022/07/09 03:58:32;;;;;;;;;;;;;;;33.61;27.28;102203.75;4423928;32;20296;-67
2022/07/09 04:00:58;;;;;;;;;;;;;;;33.54;27.52;102198.63;4424908;32;19981;-68
2022/07/09 04:03:23;;;;;;;;;;;;;;;33.72;27.15;102200.59;4425231;32;20063;-68
2022/07/09 04:05:49;;;;;;;;;;;;;;;33.81;27.19;102205.94;4423873;32;20350;-68
2022/07/09 04:08:14;;;;;;;;;;;;;;;33.35;27.89;102209.66;4423894;32;20445;-68
2022/07/09 04:10:40;;;;;;;;;;;;;;;33.42;27.34;102218.53;4421392;32;20310;-68
2022/07/09 04:13:05;;;;;;;;;;;;;;;33.39;27.31;102213.03;4423481;32;20015;-68
2022/07/09 04:15:32;;;;;;;;;;;;;;;33.14;27.44;102221.25;4423394;32;19949;-68
2022/07/09 04:17:58;;;;;;;;;;;;;;;33.60;27.00;102210.94;4425210;32;20982;-69
2022/07/09 04:20:25;;;;;;;;;;;;;;;33.36;27.37;102212.00;4422438;32;19984;-68
2022/07/09 04:22:51;;;;;;;;;;;;;;;33.32;27.47;102216.63;4424288;32;20448;-68
2022/07/09 04:25:16;;;;;;;;;;;;;;;33.13;27.66;102222.56;4424159;32;19961;-68
2022/07/09 04:27:42;;;;;;;;;;;;;;;33.40;27.03;102220.44;4422788;32;19984;-69
2022/07/09 04:30:08;;;;;;;;;;;;;;;33.53;26.91;102220.41;4423299;32;19964;-69
2022/07/09 04:32:34;;;;;;;;;;;;;;;33.51;27.14;102229.75;4425103;32;19997;-69
2022/07/09 04:35:00;;;;;;;;;;;;;;;33.21;27.33;102231.44;4426209;32;19984;-68
2022/07/09 04:37:25;;;;;;;;;;;;;;;32.75;28.32;102227.03;4422259;32;19993;-68
2022/07/09 04:39:50;;;;;;;;;;;;;;;33.16;27.54;102226.53;4423408;32;20023;-68
2022/07/09 04:42:16;;;;;;;;;;;;;;;33.46;27.25;102233.56;4422501;32;19964;-68
2022/07/09 04:44:42;;;;;;;;;;;;;;;33.45;27.22;102237.03;4423178;32;19996;-68
2022/07/09 04:47:09;;;;;;;;;;;;;;;33.36;27.16;102231.62;4424791;32;19972;-68
2022/07/09 04:49:34;;;;;;;;;;;;;;;33.50;27.09;102230.31;4423860;32;19968;-68
2022/07/09 04:52:00;;;;;;;;;;;;;;;33.19;27.48;102237.06;4422402;32;19993;-68
2022/07/09 04:54:25;;;;;;;;;;;;;;;33.28;27.16;102237.37;4422931;32;20105;-68
2022/07/09 04:56:51;;;;;;;;;;;;;;;32.99;27.52;102223.16;4421209;32;19975;-68
2022/07/09 04:59:16;;;;;;;;;;;;;;;32.76;27.74;102225.69;4422077;32;20394;-68
2022/07/09 05:01:41;;;;;;;;;;;;;;;32.64;27.79;102222.22;4422324;32;20043;-68
2022/07/09 05:04:07;;;;;;;;;;;;;;;32.98;27.75;102224.50;4424554;32;19953;-68
2022/07/09 05:06:32;;;;;;;;;;;;;;;32.30;28.28;102235.00;4422478;32;19953;-67
2022/07/09 05:08:58;;;;;;;;;;;;;;;32.88;27.60;102229.22;4420716;32;19993;-67
2022/07/09 05:11:25;;;;;;;;;;;;;;;33.19;27.29;102228.31;4423659;32;20001;-68
2022/07/09 05:13:51;;;;;;;;;;;;;;;33.33;27.13;102227.72;4422386;32;19957;-67
2022/07/09 05:16:17;;;;;;;;;;;;;;;33.40;26.88;102237.94;4422983;32;19965;-68
2022/07/09 05:18:43;;;;;;;;;;;;;;;33.37;26.84;102231.09;4424163;32;20704;-67
2022/07/09 05:21:08;;;;;;;;;;;;;;;33.30;26.70;102231.75;4423727;32;19961;-67
2022/07/09 05:23:34;;;;;;;;;;;;;;;33.49;26.46;102234.56;4421837;32;19984;-67
2022/07/09 05:26:00;;;;;;;;;;;;;;;33.64;26.48;102229.69;4423455;32;20030;-67
2022/07/09 05:28:26;;;;;;;;;;;;;;;33.64;26.51;102228.91;4421483;32;19992;-67
2022/07/09 05:30:52;;;;;;;;;;;;;;;33.04;26.92;102233.94;4423757;32;19954;-68
2022/07/09 05:33:17;;;;;;;;;;;;;;;33.82;26.17;102227.94;4423151;32;19959;-67
2022/07/09 05:35:43;;;;;;;;;;;;;;;34.01;25.70;102234.41;4422561;32;20012;-68
2022/07/09 05:38:10;;;;;;;;;;;;;;;34.11;25.69;102239.19;4423244;32;19964;-68
2022/07/09 05:40:36;;;;;;;;;;;;;;;34.00;25.83;102251.16;4420394;32;20419;-67
2022/07/09 05:43:01;;;;;;;;;;;;;;;34.32;25.16;102247.97;4424328;32;19997;-67
2022/07/09 05:45:27;;;;;;;;;;;;;;;34.02;25.27;102256.44;4423834;32;20027;-67
2022/07/09 05:47:53;;;;;;;;;;;;;;;33.52;25.83;102251.75;4424110;32;20058;-68
2022/07/09 05:50:18;;;;;;;;;;;;;;;32.42;26.98;102254.69;4423952;32;20001;-67
2022/07/09 05:52:45;;;;;;;;;;;;;;;32.57;26.80;102259.97;4407487;32;20013;-68
2022/07/09 05:55:11;;;;;;;;;;;;;;;32.64;26.49;102253.50;4423337;32;20022;-68
2022/07/09 05:57:37;;;;;;;;;;;;;;;32.15;26.78;102261.75;4422439;32;20488;-68
2022/07/09 06:00:04;;;;;;;;;;;;;;;32.82;25.84;102246.78;4422938;32;19968;-68
2022/07/09 06:02:30;;;;;;;;;;;;;;;32.48;26.21;102254.59;4424087;32;20008;-67
2022/07/09 06:04:55;;;;;;;;;;;;;;;31.95;26.93;102239.03;4422952;32;20982;-68
2022/07/09 06:07:21;;;;;;;;;;;;;;;31.56;27.58;102240.91;4420397;32;20102;-68
2022/07/09 06:09:46;;;;;;;;;;;;;;;32.06;26.80;102235.16;4420543;32;20329;-68
2022/07/09 06:12:12;;;;;;;;;;;;;;;32.14;26.75;102233.16;4421724;32;20391;-68
2022/07/09 06:14:37;;;;;;;;;;;;;;;32.21;26.74;102230.37;4421669;32;19993;-67
2022/07/09 06:17:05;;;;;;;;;;;;;;;32.04;26.94;102226.97;4421111;32;20007;-67
2022/07/09 06:19:32;;;;;;;;;;;;;;;32.75;26.06;102240.81;4423042;32;19961;-67
2022/07/09 06:21:57;;;;;;;;;;;;;;;32.66;25.84;102239.16;4421323;32;19997;-67
2022/07/09 06:24:24;;;;;;;;;;;;;;;32.71;25.75;102237.47;4421842;32;20354;-67
2022/07/09 06:26:49;;;;;;;;;;;;;;;31.80;26.85;102246.66;4422813;32;20000;-67
2022/07/09 06:29:15;;;;;;;;;;;;;;;31.30;27.26;102237.84;4422282;32;20015;-68
2022/07/09 06:31:41;;;;;;;;;;;;;;;31.71;26.52;102236.22;4421423;32;19988;-68
2022/07/09 06:34:07;;;;;;;;;;;;;;;31.54;26.89;102240.69;4420386;32;20358;-68
2022/07/09 06:36:32;;;;;;;;;;;;;;;31.50;26.96;102248.97;4421693;32;20476;-68
2022/07/09 06:41:43;;;;;;;;;;;;;;;32.73;25.29;102255.97;4422863;32;20645;-68
2022/07/09 06:44:09;;;;;;;;;;;;;;;33.04;24.89;102257.28;4422357;32;19957;-68
2022/07/09 06:46:35;;;;;;;;;;;;;;;32.31;25.50;102246.09;4421166;32;20020;-68
2022/07/09 06:49:01;;;;;;;;;;;;;;;32.29;25.58;102251.72;4423076;32;20361;-68
2022/07/09 06:51:26;;;;;;;;;;;;;;;31.67;26.06;102266.97;4423021;32;19970;-67
2022/07/09 06:53:52;;;;;;;;;;;;;;;31.88;25.73;102254.25;4419768;32;20003;-68
2022/07/09 06:56:18;;;;;;;;;;;;;;;32.58;24.87;102261.56;4421609;32;20012;-69
2022/07/09 06:58:43;;;;;;;;;;;;;;;32.93;24.33;102260.41;4422492;32;19993;-69
2022/07/09 07:01:09;;;;;;;;;;;;;;;32.39;24.72;102261.63;4421914;32;20019;-69
2022/07/09 07:03:35;;;;;;;;;;;;;;;32.74;24.27;102263.41;4419461;32;20016;-69
2022/07/09 07:06:00;;;;;;;;;;;;;;;33.35;23.50;102265.09;4420996;32;20033;-68
2022/07/09 07:08:25;;;;;;;;;;;;;;;33.58;23.17;102272.03;4422189;32;20010;-68
2022/07/09 07:10:51;;;;;;;;;;;;;;;33.85;22.91;102271.41;4421475;32;20037;-68
2022/07/09 07:13:17;;;;;;;;;;;;;;;32.99;23.93;102272.75;4420168;32;19972;-69
2022/07/09 07:15:44;;;;;;;;;;;;;;;32.65;24.32;102279.16;4421941;32;20012;-69
2022/07/09 07:18:10;;;;;;;;;;;;;;;33.25;23.59;102273.53;4421393;32;19989;-69
2022/07/09 07:20:35;;;;;;;;;;;;;;;33.42;23.22;102276.12;4421515;32;19981;-68
2022/07/09 07:23:01;;;;;;;;;;;;;;;33.91;22.81;102280.06;4422988;32;19957;-68
2022/07/09 07:25:26;;;;;;;;;;;;;;;33.81;22.96;102270.97;4424839;32;20357;-68
2022/07/09 07:27:52;;;;;;;;;;;;;;;34.16;22.54;102279.19;4423176;32;19995;-67
2022/07/09 07:30:17;;;;;;;;;;;;;;;34.27;22.26;102269.38;4424172;32;19993;-68
2022/07/09 07:32:43;;;;;;;;;;;;;;;33.63;23.00;102271.13;4423815;32;20324;-67
2022/07/09 07:35:08;;;;;;;;;;;;;;;33.48;23.53;102276.78;4425804;32;19967;-67
2022/07/09 07:37:34;;;;;;;;;;;;;;;33.36;23.70;102269.59;4424838;32;20427;-67
2022/07/09 07:39:59;;;;;;;;;;;;;;;33.93;23.08;102281.06;4424260;32;20022;-68
2022/07/09 07:42:25;;;;;;;;;;;;;;;33.49;23.47;102275.44;4423513;32;19993;-68
2022/07/09 07:44:50;;;;;;;;;;;;;;;32.46;24.57;102272.62;4425962;32;19949;-68
2022/07/09 07:47:16;;;;;;;;;;;;;;;33.12;23.67;102263.97;4424115;32;19990;-67
2022/07/09 07:49:42;;;;;;;;;;;;;;;32.78;23.82;102280.53;4423866;32;19953;-68
2022/07/09 07:52:08;;;;;;;;;;;;;;;33.49;23.09;102278.34;4425228;32;20010;-67
2022/07/09 07:54:33;;;;;;;;;;;;;;;33.74;22.65;102273.78;4424732;32;19949;-67
2022/07/09 07:56:59;;;;;;;;;;;;;;;33.56;22.60;102274.75;4425449;32;20016;-67
2022/07/09 07:59:25;;;;;;;;;;;;;;;33.85;22.36;102282.31;4424196;32;20282;-67
2022/07/09 08:01:50;;;;;;;;;;;;;;;33.10;23.10;102279.12;4425250;32;19970;-67
2022/07/09 08:04:16;;;;;;;;;;;;;;;33.85;22.28;102280.19;4424541;32;19983;-68
2022/07/09 08:06:41;;;;;;;;;;;;;;;33.99;22.13;102278.03;4424255;32;20007;-67
2022/07/09 08:09:07;;;;;;;;;;;;;;;32.67;23.46;102270.66;4423270;32;20043;-69
2022/07/09 08:11:32;;;;;;;;;;;;;;;33.75;22.14;102273.22;4424946;32;20290;-68
2022/07/09 08:13:58;;;;;;;;;;;;;;;34.47;21.47;102277.37;4422381;32;19987;-68
2022/07/09 08:16:23;;;;;;;;;;;;;;;35.04;21.03;102273.19;4423328;32;20000;-67
2022/07/09 08:18:48;;;;;;;;;;;;;;;35.46;20.55;102273.84;4425734;32;20004;-68
2022/07/09 08:21:14;;;;;;;;;;;;;;;35.31;20.63;102282.50;4425501;32;20083;-68
2022/07/09 08:23:55;;;;;;;;;;;;;;;34.48;21.41;102289.84;4421391;32;20008;-68
2022/07/09 08:26:22;;;;;;;;;;;;;;;34.08;21.84;102280.47;4422821;32;20336;-68
2022/07/09 08:28:48;;;;;;;;;;;;;;;33.53;22.49;102278.81;4424453;32;20009;-68
2022/07/09 08:31:15;;;;;;;;;;;;;;;34.02;21.31;102273.97;4425195;32;19989;-68
2022/07/09 08:33:40;;;;;;;;;;;;;;;35.12;20.20;102279.06;4423356;32;20044;-68
2022/07/09 08:36:05;;;;;;;;;;;;;;;34.86;20.56;102271.28;4422759;32;20341;-68
2022/07/09 08:38:31;;;;;;;;;;;;;;;34.99;20.58;102273.31;4423005;32;19997;-68
2022/07/09 08:40:59;;;;;;;;;;;;;;;35.44;20.22;102265.62;4423575;32;20385;-69
2022/07/09 08:43:26;;;;;;;;;;;;;;;35.54;20.31;102278.34;4422115;32;20016;-69
2022/07/09 08:45:53;;;;;;;;;;;;;;;35.48;20.43;102283.59;4424651;32;19961;-68
2022/07/09 08:48:18;;;;;;;;;;;;;;;35.86;20.29;102277.94;4424800;32;20324;-69
2022/07/09 08:50:44;;;;;;;;;;;;;;;34.84;21.10;102271.03;4423515;32;20006;-69
2022/07/09 08:53:11;;;;;;;;;;;;;;;35.16;20.73;102280.28;4422919;32;20052;-69
2022/07/09 08:55:37;;;;;;;;;;;;;;;35.72;19.76;102274.34;4422592;32;19962;-69
2022/07/09 08:58:02;;;;;;;;;;;;;;;36.56;19.20;102284.91;4423926;32;19989;-68
2022/07/09 09:00:28;;;;;;;;;;;;;;;36.78;18.95;102278.25;4424054;32;19965;-69
2022/07/09 09:02:54;;;;;;;;;;;;;;;36.71;18.87;102290.75;4422823;32;20589;-67
2022/07/09 09:05:19;;;;;;;;;;;;;;;36.35;19.33;102278.41;4423939;32;19971;-68
2022/07/09 09:07:45;;;;;;;;;;;;;;;36.71;19.14;102276.09;4420640;32;19972;-68
2022/07/09 09:10:20;;;;;;;;;;;;;;;37.49;18.34;102271.09;4420986;32;20451;-68
2022/07/09 09:12:45;;;;;;;;;;;;;;;36.01;19.19;102266.22;4423069;32;20005;-68
2022/07/09 09:15:11;;;;;;;;;;;;;;;35.93;19.17;102260.37;4423226;32;19961;-68
2022/07/09 09:17:42;;;;;;;;;;;;;;;36.48;18.56;102266.53;4422278;32;19968;-68
2022/07/09 09:20:12;;;;;;;;;;;;;;;36.87;17.92;102265.16;4421012;32;20386;-69
2022/07/09 09:22:44;;;;;;;;;;;;;;;37.54;17.13;102265.00;4422400;32;20000;-68
2022/07/09 09:25:15;;;;;;;;;;;;;;;37.80;16.95;102261.56;4422805;32;20009;-68
2022/07/09 09:27:40;;;;;;;;;;;;;;;37.83;16.78;102262.53;4422811;32;20023;-68
2022/07/09 09:30:09;;;;;;;;;;;;;;;37.90;16.65;102264.63;4422350;32;20405;-68
2022/07/09 09:32:34;;;;;;;;;;;;;;;38.38;16.57;102259.44;4422118;32;19968;-68
2022/07/09 09:35:02;;;;;;;;;;;;;;;38.17;16.61;102262.75;4424415;32;20629;-68
2022/07/09 09:37:28;;;;;;;;;;;;;;;38.25;16.45;102265.62;4422535;32;19949;-69
2022/07/09 09:39:54;;;;;;;;;;;;;;;39.01;15.99;102270.28;4421165;32;20579;-68
2022/07/09 09:42:23;;;;;;;;;;;;;;;39.48;15.47;102269.97;4422772;32;19954;-68
2022/07/09 09:44:50;;;;;;;;;;;;;;;39.53;15.66;102265.97;4422424;32;20005;-68
2022/07/09 09:47:19;;;;;;;;;;;;;;;39.20;15.83;102255.75;4422052;32;20319;-68
2022/07/09 09:49:47;;;;;;;;;;;;;;;39.73;15.59;102269.84;4424132;32;19992;-69
2022/07/09 09:52:13;;;;;;;;;;;;;;;40.51;14.68;102270.47;4421628;32;20000;-68
2022/07/09 09:54:39;;;;;;;;;;;;;;;40.70;14.60;102279.41;4421924;32;19984;-69
2022/07/09 09:57:05;;;;;;;;;;;;;;;40.48;14.72;102267.94;4421437;32;19961;-68
2022/07/09 09:59:31;;;;;;;;;;;;;;;40.90;14.56;102271.38;4422444;32;20315;-69
2022/07/09 10:01:57;;;;;;;;;;;;;;;40.91;14.55;102269.97;4422418;32;20009;-68
2022/07/09 10:04:24;;;;;;;;;;;;;;;39.87;15.38;102271.03;4422850;32;19968;-69
2022/07/09 10:06:50;;;;;;;;;;;;;;;39.80;15.23;102256.38;4420803;32;19996;-69
2022/07/09 10:09:15;;;;;;;;;;;;;;;40.10;15.02;102264.81;4422218;32;20420;-68
2022/07/09 10:11:43;;;;;;;;;;;;;;;40.23;14.73;102258.50;4420732;32;20233;-68
2022/07/09 10:14:14;;;;;;;;;;;;;;;40.11;14.87;102257.50;4421036;32;19997;-68
2022/07/09 10:16:40;;;;;;;;;;;;;;;39.36;15.82;102251.22;4423053;32;19983;-69
2022/07/09 10:19:06;;;;;;;;;;;;;;;38.64;16.41;102259.63;4421166;32;19988;-68
2022/07/09 10:21:33;;;;;;;;;;;;;;;39.25;15.74;102253.91;4422401;32;20339;-70
2022/07/09 10:23:59;;;;;;;;;;;;;;;40.11;15.11;102258.31;4422368;32;20193;-68
2022/07/09 10:26:34;;;;;;;;;;;;;;;40.91;14.36;102261.91;4420716;32;19996;-69
2022/07/09 10:28:59;;;;;;;;;;;;;;;39.67;15.34;102249.47;4420099;32;20087;-69
2022/07/09 10:31:25;;;;;;;;;;;;;;;40.26;14.77;102264.00;4421669;32;20595;-68
2022/07/09 10:34:00;;;;;;;;;;;;;;;40.09;15.17;102249.28;4420993;32;20263;-69
2022/07/09 10:36:25;;;;;;;;;;;;;;;40.77;14.62;102254.84;4421231;32;19957;-69
2022/07/09 10:38:54;;;;;;;;;;;;;;;41.33;14.31;102256.38;4422406;32;19984;-68
2022/07/09 10:41:22;;;;;;;;;;;;;;;40.73;14.87;102265.56;4422255;32;19999;-69
2022/07/09 10:43:51;;;;;;;;;;;;;;;40.84;14.86;102262.03;4422463;32;19949;-67
2022/07/09 10:46:17;;;;;;;;;;;;;;;40.50;15.07;102247.47;4407644;32;20389;-69
2022/07/09 10:48:44;;;;;;;;;;;;;;;41.01;14.65;102256.78;4420919;32;19996;-69
2022/07/09 10:51:18;;;;;;;;;;;;;;;41.16;14.65;102249.81;4421122;32;19965;-69
2022/07/09 10:53:43;;;;;;;;;;;;;;;41.72;14.44;102245.31;4421078;32;19997;-68
2022/07/09 10:56:09;;;;;;;;;;;;;;;41.45;14.74;102254.31;4423518;32;20041;-68
2022/07/09 10:58:35;;;;;;;;;;;;;;;42.06;14.07;102247.88;4422312;32;19987;-69
2022/07/09 11:01:04;;;;;;;;;;;;;;;42.55;13.75;102255.91;4421569;32;20398;-69
2022/07/09 11:03:30;;;;;;;;;;;;;;;41.83;14.11;102247.59;4420545;32;20081;-68
2022/07/09 11:05:57;;;;;;;;;;;;;;;42.31;13.91;102245.31;4421144;32;20017;-69
2022/07/09 11:08:23;;;;;;;;;;;;;;;41.37;14.44;102255.88;3938319;32;15736561;-68
2022/07/09 11:10:48;;;;;;;;;;;;;;;41.60;14.50;102255.44;4421088;32;20542;-68
2022/07/09 11:13:14;;;;;;;;;;;;;;;41.51;14.09;102257.00;4422506;32;20008;-68
2022/07/09 11:15:40;;;;;;;;;;;;;;;41.83;14.07;102252.72;4422722;32;20030;-69
2022/07/09 11:18:06;;;;;;;;;;;;;;;42.05;13.87;102249.28;4420633;32;20000;-68
2022/07/09 11:20:36;;;;;;;;;;;;;;;41.93;14.08;102256.50;4421202;32;20124;-69
2022/07/09 11:23:02;;;;;;;;;;;;;;;41.88;14.06;102266.44;4420417;32;19957;-68
2022/07/09 11:25:28;;;;;;;;;;;;;;;41.72;14.07;102262.25;4421053;32;19979;-70
2022/07/09 11:27:54;;;;;;;;;;;;;;;43.43;12.81;102258.44;4422330;32;20685;-69
2022/07/09 11:30:19;;;;;;;;;;;;;;;44.23;12.44;102257.19;4421911;32;19969;-69
2022/07/09 11:32:46;;;;;;;;;;;;;;;42.05;14.19;102264.06;4419510;32;19962;-69
2022/07/09 11:35:11;;;;;;;;;;;;;;;43.00;13.66;102271.72;4422559;32;19977;-69
2022/07/09 11:37:38;;;;;;;;;;;;;;;43.39;13.02;102270.03;4419732;32;20089;-69
2022/07/09 11:40:03;;;;;;;;;;;;;;;43.49;13.11;102272.97;4421865;32;19992;-68
2022/07/09 11:42:29;;;;;;;;;;;;;;;43.37;12.85;102263.97;4418443;32;20467;-67
2022/07/09 11:44:55;;;;;;;;;;;;;;;42.84;13.49;102265.47;4422235;32;20306;-68
2022/07/09 11:47:31;;;;;;;;;;;;;;;43.21;12.96;102265.06;4423367;32;20037;-68
2022/07/09 11:50:04;;;;;;;;;;;;;;;44.58;11.96;102269.84;4420558;32;20365;-67
2022/07/09 11:52:29;;;;;;;;;;;;;;;45.24;11.59;102268.09;4421451;32;20271;-68
2022/07/09 11:57:30;;;;;;;;;;;;;;;45.15;11.84;102257.13;3950336;32;15724487;-70
2022/07/09 11:59:56;;;;;;;;;;;;;;;45.15;11.84;102257.13;4428902;32;19973;-68
2022/07/09 12:02:23;;;;;;;;;;;;;;;44.83;11.71;102258.09;4426591;32;20365;-69
2022/07/09 12:04:48;;;;;;;;;;;;;;;45.38;11.40;102257.09;4425752;32;19989;-68
2022/07/09 12:07:13;;;;;;;;;;;;;;;44.90;11.54;102265.19;4425210;32;20315;-68
2022/07/09 12:09:39;;;;;;;;;;;;;;;45.81;11.09;102264.13;4429275;32;20435;-69
2022/07/09 12:12:05;;;;;;;;;;;;;;;46.01;11.00;102262.31;4426130;32;19968;-69
2022/07/09 12:14:30;;;;;;;;;;;;;;;45.49;11.56;102259.22;4427366;32;20390;-69
2022/07/09 12:16:57;;;;;;;;;;;;;;;45.45;11.49;102261.22;4425298;32;20007;-68
2022/07/09 12:19:22;;;;;;;;;;;;;;;45.09;11.89;102253.81;4426502;32;19997;-69
2022/07/09 12:21:48;;;;;;;;;;;;;;;45.20;11.57;102261.13;4427918;32;20041;-69
2022/07/09 12:24:13;;;;;;;;;;;;;;;45.16;11.32;102254.94;4425399;32;20320;-68
2022/07/09 12:26:39;;;;;;;;;;;;;;;45.14;11.51;102258.56;4426157;32;19994;-70
2022/07/09 12:29:04;;;;;;;;;;;;;;;44.87;11.96;102260.56;4429796;32;19961;-68
2022/07/09 12:31:30;;;;;;;;;;;;;;;43.99;12.68;102255.59;4423454;32;20073;-68
2022/07/09 12:33:55;;;;;;;;;;;;;;;43.43;12.90;102258.44;4427535;32;20008;-68